sensor_id;sensor_type;location;lat;lon;timestamp;P1;durP1;ratioP1;P2;durP2;ratioP2
27187;SDS011;14708;50.872;5.306;2022-12-10T00:01:30;6.57;;;5.88;;
27187;SDS011;14708;50.872;5.306;2022-12-10T00:03:56;7.85;;;6.00;;
27187;SDS011;14708;50.872;5.306;2022-12-10T00:06:23;7.72;;;6.25;;
27187;SDS011;14708;50.872;5.306;2022-12-10T00:08:51;8.47;;;6.57;;
27187;SDS011;14708;50.872;5.306;2022-12-10T00:11:18;9.23;;;6.43;;
27187;SDS011;14708;50.872;5.306;2022-12-10T00:13:45;7.18;;;5.60;;
27187;SDS011;14708;50.872;5.306;2022-12-10T00:16:12;7.35;;;5.78;;
27187;SDS011;14708;50.872;5.306;2022-12-10T00:18:39;8.80;;;6.25;;
27187;SDS011;14708;50.872;5.306;2022-12-10T00:21:05;7.80;;;5.90;;
27187;SDS011;14708;50.872;5.306;2022-12-10T00:23:34;7.55;;;5.22;;
27187;SDS011;14708;50.872;5.306;2022-12-10T00:26:11;7.72;;;6.32;;
27187;SDS011;14708;50.872;5.306;2022-12-10T00:31:06;8.23;;;6.50;;
27187;SDS011;14708;50.872;5.306;2022-12-10T00:33:35;8.57;;;6.10;;
27187;SDS011;14708;50.872;5.306;2022-12-10T00:36:04;7.20;;;6.25;;
27187;SDS011;14708;50.872;5.306;2022-12-10T00:38:38;8.38;;;5.97;;
27187;SDS011;14708;50.872;5.306;2022-12-10T00:41:05;7.45;;;5.95;;
27187;SDS011;14708;50.872;5.306;2022-12-10T00:43:31;6.85;;;5.65;;
27187;SDS011;14708;50.872;5.306;2022-12-10T00:45:57;6.38;;;5.75;;
27187;SDS011;14708;50.872;5.306;2022-12-10T00:48:22;8.77;;;5.82;;
27187;SDS011;14708;50.872;5.306;2022-12-10T00:50:56;6.68;;;5.95;;
27187;SDS011;14708;50.872;5.306;2022-12-10T00:53:22;7.28;;;6.50;;
27187;SDS011;14708;50.872;5.306;2022-12-10T00:55:48;6.25;;;5.65;;
27187;SDS011;14708;50.872;5.306;2022-12-10T00:58:13;7.05;;;6.35;;
27187;SDS011;14708;50.872;5.306;2022-12-10T01:00:39;6.68;;;6.00;;
27187;SDS011;14708;50.872;5.306;2022-12-10T01:03:05;7.40;;;6.07;;
27187;SDS011;14708;50.872;5.306;2022-12-10T01:05:30;7.75;;;6.05;;
27187;SDS011;14708;50.872;5.306;2022-12-10T01:07:56;7.15;;;6.07;;
27187;SDS011;14708;50.872;5.306;2022-12-10T01:10:22;7.25;;;5.93;;
27187;SDS011;14708;50.872;5.306;2022-12-10T01:12:47;5.95;;;5.35;;
27187;SDS011;14708;50.872;5.306;2022-12-10T01:15:13;6.88;;;5.93;;
27187;SDS011;14708;50.872;5.306;2022-12-10T01:17:38;6.28;;;5.60;;
27187;SDS011;14708;50.872;5.306;2022-12-10T01:20:04;6.88;;;6.07;;
27187;SDS011;14708;50.872;5.306;2022-12-10T01:22:30;6.40;;;5.40;;
27187;SDS011;14708;50.872;5.306;2022-12-10T01:24:56;6.75;;;5.75;;
27187;SDS011;14708;50.872;5.306;2022-12-10T01:27:21;8.88;;;6.40;;
27187;SDS011;14708;50.872;5.306;2022-12-10T01:29:47;7.50;;;5.88;;
27187;SDS011;14708;50.872;5.306;2022-12-10T01:32:13;6.53;;;5.88;;
27187;SDS011;14708;50.872;5.306;2022-12-10T01:34:38;7.53;;;6.20;;
27187;SDS011;14708;50.872;5.306;2022-12-10T01:37:04;7.07;;;5.68;;
27187;SDS011;14708;50.872;5.306;2022-12-10T01:39:29;6.25;;;5.60;;
27187;SDS011;14708;50.872;5.306;2022-12-10T01:41:56;6.32;;;5.60;;
27187;SDS011;14708;50.872;5.306;2022-12-10T01:46:52;7.82;;;6.32;;
27187;SDS011;14708;50.872;5.306;2022-12-10T01:49:24;6.80;;;6.10;;
27187;SDS011;14708;50.872;5.306;2022-12-10T01:51:58;7.03;;;6.25;;
27187;SDS011;14708;50.872;5.306;2022-12-10T01:54:28;7.50;;;6.22;;
27187;SDS011;14708;50.872;5.306;2022-12-10T01:56:59;8.70;;;6.13;;
27187;SDS011;14708;50.872;5.306;2022-12-10T01:59:36;6.85;;;5.50;;
27187;SDS011;14708;50.872;5.306;2022-12-10T02:07:50;8.07;;;5.82;;
27187;SDS011;14708;50.872;5.306;2022-12-10T02:10:30;6.25;;;5.60;;
27187;SDS011;14708;50.872;5.306;2022-12-10T02:13:14;6.07;;;5.47;;
27187;SDS011;14708;50.872;5.306;2022-12-10T02:15:49;6.65;;;5.60;;
27187;SDS011;14708;50.872;5.306;2022-12-10T02:18:27;6.97;;;5.35;;
27187;SDS011;14708;50.872;5.306;2022-12-10T02:21:02;7.40;;;5.97;;
27187;SDS011;14708;50.872;5.306;2022-12-10T02:23:36;6.35;;;5.75;;
27187;SDS011;14708;50.872;5.306;2022-12-10T02:26:15;7.82;;;6.47;;
27187;SDS011;14708;50.872;5.306;2022-12-10T02:31:36;7.03;;;6.17;;
27187;SDS011;14708;50.872;5.306;2022-12-10T02:34:05;6.20;;;5.60;;
27187;SDS011;14708;50.872;5.306;2022-12-10T02:36:34;6.35;;;5.70;;
27187;SDS011;14708;50.872;5.306;2022-12-10T02:39:03;9.13;;;5.63;;
27187;SDS011;14708;50.872;5.306;2022-12-10T02:41:34;6.80;;;5.68;;
27187;SDS011;14708;50.872;5.306;2022-12-10T02:44:03;6.65;;;5.93;;
27187;SDS011;14708;50.872;5.306;2022-12-10T02:46:32;7.28;;;5.85;;
27187;SDS011;14708;50.872;5.306;2022-12-10T02:48:59;6.50;;;5.85;;
27187;SDS011;14708;50.872;5.306;2022-12-10T02:51:28;6.28;;;5.68;;
27187;SDS011;14708;50.872;5.306;2022-12-10T02:54:00;6.40;;;5.78;;
27187;SDS011;14708;50.872;5.306;2022-12-10T02:56:45;7.28;;;5.82;;
27187;SDS011;14708;50.872;5.306;2022-12-10T02:59:22;7.55;;;6.45;;
27187;SDS011;14708;50.872;5.306;2022-12-10T03:02:13;6.30;;;5.70;;
27187;SDS011;14708;50.872;5.306;2022-12-10T03:07:11;7.72;;;6.30;;
27187;SDS011;14708;50.872;5.306;2022-12-10T03:09:47;6.38;;;5.38;;
27187;SDS011;14708;50.872;5.306;2022-12-10T03:12:21;7.03;;;5.75;;
27187;SDS011;14708;50.872;5.306;2022-12-10T03:14:53;6.05;;;5.40;;
27187;SDS011;14708;50.872;5.306;2022-12-10T03:17:24;6.22;;;5.50;;
27187;SDS011;14708;50.872;5.306;2022-12-10T03:19:53;6.32;;;5.72;;
27187;SDS011;14708;50.872;5.306;2022-12-10T03:22:22;6.22;;;5.57;;
27187;SDS011;14708;50.872;5.306;2022-12-10T03:24:48;6.50;;;5.80;;
27187;SDS011;14708;50.872;5.306;2022-12-10T03:27:14;6.88;;;6.00;;
27187;SDS011;14708;50.872;5.306;2022-12-10T03:29:53;5.50;;;5.00;;
27187;SDS011;14708;50.872;5.306;2022-12-10T03:32:22;6.38;;;5.78;;
27187;SDS011;14708;50.872;5.306;2022-12-10T03:34:50;6.78;;;5.88;;
27187;SDS011;14708;50.872;5.306;2022-12-10T03:37:18;6.63;;;5.95;;
27187;SDS011;14708;50.872;5.306;2022-12-10T03:39:44;7.05;;;5.90;;
27187;SDS011;14708;50.872;5.306;2022-12-10T03:42:10;5.68;;;5.00;;
27187;SDS011;14708;50.872;5.306;2022-12-10T03:44:37;6.75;;;6.07;;
27187;SDS011;14708;50.872;5.306;2022-12-10T03:47:05;6.93;;;5.95;;
27187;SDS011;14708;50.872;5.306;2022-12-10T03:49:33;6.72;;;6.00;;
27187;SDS011;14708;50.872;5.306;2022-12-10T03:51:59;6.35;;;5.38;;
27187;SDS011;14708;50.872;5.306;2022-12-10T03:54:25;6.40;;;5.80;;
27187;SDS011;14708;50.872;5.306;2022-12-10T03:56:51;6.10;;;5.50;;
27187;SDS011;14708;50.872;5.306;2022-12-10T03:59:16;5.85;;;5.25;;
27187;SDS011;14708;50.872;5.306;2022-12-10T04:01:42;6.75;;;5.82;;
27187;SDS011;14708;50.872;5.306;2022-12-10T04:04:08;5.95;;;5.35;;
27187;SDS011;14708;50.872;5.306;2022-12-10T04:06:34;6.32;;;5.53;;
27187;SDS011;14708;50.872;5.306;2022-12-10T04:09:02;6.65;;;5.95;;
27187;SDS011;14708;50.872;5.306;2022-12-10T04:11:27;6.65;;;5.70;;
27187;SDS011;14708;50.872;5.306;2022-12-10T04:13:53;6.80;;;5.90;;
27187;SDS011;14708;50.872;5.306;2022-12-10T04:16:37;6.85;;;5.68;;
27187;SDS011;14708;50.872;5.306;2022-12-10T04:19:04;6.68;;;5.75;;
27187;SDS011;14708;50.872;5.306;2022-12-10T04:21:38;6.40;;;5.72;;
27187;SDS011;14708;50.872;5.306;2022-12-10T04:24:24;6.60;;;5.43;;
27187;SDS011;14708;50.872;5.306;2022-12-10T04:27:11;6.85;;;6.15;;
27187;SDS011;14708;50.872;5.306;2022-12-10T04:29:41;6.57;;;5.88;;
27187;SDS011;14708;50.872;5.306;2022-12-10T04:32:06;7.43;;;5.97;;
27187;SDS011;14708;50.872;5.306;2022-12-10T04:34:32;6.65;;;5.97;;
27187;SDS011;14708;50.872;5.306;2022-12-10T04:36:58;6.38;;;5.43;;
27187;SDS011;14708;50.872;5.306;2022-12-10T04:39:25;5.82;;;5.22;;
27187;SDS011;14708;50.872;5.306;2022-12-10T04:41:51;6.10;;;5.50;;
27187;SDS011;14708;50.872;5.306;2022-12-10T04:44:17;5.88;;;5.35;;
27187;SDS011;14708;50.872;5.306;2022-12-10T04:46:43;6.15;;;5.53;;
27187;SDS011;14708;50.872;5.306;2022-12-10T04:49:09;6.78;;;5.93;;
27187;SDS011;14708;50.872;5.306;2022-12-10T04:51:35;7.13;;;5.68;;
27187;SDS011;14708;50.872;5.306;2022-12-10T04:54:01;6.22;;;5.63;;
27187;SDS011;14708;50.872;5.306;2022-12-10T04:56:27;7.00;;;6.20;;
27187;SDS011;14708;50.872;5.306;2022-12-10T04:58:54;6.22;;;5.63;;
27187;SDS011;14708;50.872;5.306;2022-12-10T05:01:21;6.65;;;5.22;;
27187;SDS011;14708;50.872;5.306;2022-12-10T05:03:46;6.35;;;5.75;;
27187;SDS011;14708;50.872;5.306;2022-12-10T05:06:12;6.57;;;5.80;;
27187;SDS011;14708;50.872;5.306;2022-12-10T05:08:40;5.93;;;5.38;;
27187;SDS011;14708;50.872;5.306;2022-12-10T05:11:09;7.40;;;6.00;;
27187;SDS011;14708;50.872;5.306;2022-12-10T05:13:37;6.75;;;6.05;;
27187;SDS011;14708;50.872;5.306;2022-12-10T05:16:03;6.43;;;5.72;;
27187;SDS011;14708;50.872;5.306;2022-12-10T05:18:31;6.80;;;5.97;;
27187;SDS011;14708;50.872;5.306;2022-12-10T05:21:00;5.82;;;5.32;;
27187;SDS011;14708;50.872;5.306;2022-12-10T05:23:28;6.28;;;5.32;;
27187;SDS011;14708;50.872;5.306;2022-12-10T05:26:00;6.65;;;5.88;;
27187;SDS011;14708;50.872;5.306;2022-12-10T05:28:28;5.97;;;5.45;;
27187;SDS011;14708;50.872;5.306;2022-12-10T05:30:54;7.05;;;5.90;;
27187;SDS011;14708;50.872;5.306;2022-12-10T05:33:20;6.70;;;6.00;;
27187;SDS011;14708;50.872;5.306;2022-12-10T05:35:56;6.28;;;5.68;;
27187;SDS011;14708;50.872;5.306;2022-12-10T05:38:24;6.50;;;5.80;;
27187;SDS011;14708;50.872;5.306;2022-12-10T05:40:50;7.85;;;6.30;;
27187;SDS011;14708;50.872;5.306;2022-12-10T05:43:16;6.80;;;5.93;;
27187;SDS011;14708;50.872;5.306;2022-12-10T05:45:42;6.80;;;6.10;;
27187;SDS011;14708;50.872;5.306;2022-12-10T05:48:08;6.80;;;5.95;;
27187;SDS011;14708;50.872;5.306;2022-12-10T05:50:35;6.90;;;5.97;;
27187;SDS011;14708;50.872;5.306;2022-12-10T05:53:01;6.90;;;6.10;;
27187;SDS011;14708;50.872;5.306;2022-12-10T05:55:27;6.47;;;5.35;;
27187;SDS011;14708;50.872;5.306;2022-12-10T05:57:54;6.28;;;5.65;;
27187;SDS011;14708;50.872;5.306;2022-12-10T06:00:20;6.55;;;5.82;;
27187;SDS011;14708;50.872;5.306;2022-12-10T06:02:48;5.75;;;5.00;;
27187;SDS011;14708;50.872;5.306;2022-12-10T06:05:14;5.95;;;5.35;;
27187;SDS011;14708;50.872;5.306;2022-12-10T06:07:40;6.28;;;5.43;;
27187;SDS011;14708;50.872;5.306;2022-12-10T06:10:06;7.28;;;5.90;;
27187;SDS011;14708;50.872;5.306;2022-12-10T06:12:32;7.00;;;6.03;;
27187;SDS011;14708;50.872;5.306;2022-12-10T06:14:58;7.38;;;6.05;;
27187;SDS011;14708;50.872;5.306;2022-12-10T06:17:24;6.43;;;5.82;;
27187;SDS011;14708;50.872;5.306;2022-12-10T06:19:49;6.13;;;5.53;;
27187;SDS011;14708;50.872;5.306;2022-12-10T06:22:15;6.38;;;5.57;;
27187;SDS011;14708;50.872;5.306;2022-12-10T06:24:40;6.90;;;5.97;;
27187;SDS011;14708;50.872;5.306;2022-12-10T06:27:06;6.53;;;5.93;;
27187;SDS011;14708;50.872;5.306;2022-12-10T06:29:32;6.65;;;5.72;;
27187;SDS011;14708;50.872;5.306;2022-12-10T06:31:57;6.15;;;5.15;;
27187;SDS011;14708;50.872;5.306;2022-12-10T06:34:23;6.30;;;5.70;;
27187;SDS011;14708;50.872;5.306;2022-12-10T06:36:49;7.18;;;5.97;;
27187;SDS011;14708;50.872;5.306;2022-12-10T06:39:14;6.07;;;5.45;;
27187;SDS011;14708;50.872;5.306;2022-12-10T06:41:40;7.05;;;6.35;;
27187;SDS011;14708;50.872;5.306;2022-12-10T06:44:08;6.63;;;5.97;;
27187;SDS011;14708;50.872;5.306;2022-12-10T06:46:35;7.03;;;6.32;;
27187;SDS011;14708;50.872;5.306;2022-12-10T06:49:02;7.57;;;5.82;;
27187;SDS011;14708;50.872;5.306;2022-12-10T06:51:28;7.25;;;6.55;;
27187;SDS011;14708;50.872;5.306;2022-12-10T06:53:53;7.15;;;6.22;;
27187;SDS011;14708;50.872;5.306;2022-12-10T06:56:19;11.73;;;6.32;;
27187;SDS011;14708;50.872;5.306;2022-12-10T06:58:45;8.50;;;6.32;;
27187;SDS011;14708;50.872;5.306;2022-12-10T07:01:13;7.68;;;6.32;;
27187;SDS011;14708;50.872;5.306;2022-12-10T07:03:41;6.63;;;5.70;;
27187;SDS011;14708;50.872;5.306;2022-12-10T07:06:10;6.80;;;5.43;;
27187;SDS011;14708;50.872;5.306;2022-12-10T07:08:36;6.70;;;5.85;;
27187;SDS011;14708;50.872;5.306;2022-12-10T07:11:03;7.28;;;6.00;;
27187;SDS011;14708;50.872;5.306;2022-12-10T07:13:30;6.93;;;5.65;;
27187;SDS011;14708;50.872;5.306;2022-12-10T07:15:55;7.88;;;6.15;;
27187;SDS011;14708;50.872;5.306;2022-12-10T07:18:21;8.00;;;6.32;;
27187;SDS011;14708;50.872;5.306;2022-12-10T07:20:46;8.98;;;6.10;;
27187;SDS011;14708;50.872;5.306;2022-12-10T07:23:12;8.52;;;6.03;;
27187;SDS011;14708;50.872;5.306;2022-12-10T07:25:38;12.15;;;5.47;;
27187;SDS011;14708;50.872;5.306;2022-12-10T07:28:03;9.88;;;5.55;;
27187;SDS011;14708;50.872;5.306;2022-12-10T07:30:29;10.57;;;6.30;;
27187;SDS011;14708;50.872;5.306;2022-12-10T07:32:54;15.15;;;7.03;;
27187;SDS011;14708;50.872;5.306;2022-12-10T07:35:20;7.82;;;5.88;;
27187;SDS011;14708;50.872;5.306;2022-12-10T07:37:46;8.27;;;5.47;;
27187;SDS011;14708;50.872;5.306;2022-12-10T07:40:11;9.82;;;5.70;;
27187;SDS011;14708;50.872;5.306;2022-12-10T07:42:37;7.45;;;5.90;;
27187;SDS011;14708;50.872;5.306;2022-12-10T07:45:02;16.15;;;6.43;;
27187;SDS011;14708;50.872;5.306;2022-12-10T07:47:28;14.43;;;7.10;;
27187;SDS011;14708;50.872;5.306;2022-12-10T07:49:54;15.80;;;6.70;;
27187;SDS011;14708;50.872;5.306;2022-12-10T07:52:20;16.63;;;6.78;;
27187;SDS011;14708;50.872;5.306;2022-12-10T07:54:45;16.60;;;7.10;;
27187;SDS011;14708;50.872;5.306;2022-12-10T07:57:11;16.55;;;7.35;;
27187;SDS011;14708;50.872;5.306;2022-12-10T07:59:37;13.10;;;6.70;;
27187;SDS011;14708;50.872;5.306;2022-12-10T08:02:02;16.00;;;7.55;;
27187;SDS011;14708;50.872;5.306;2022-12-10T08:04:28;19.33;;;8.43;;
27187;SDS011;14708;50.872;5.306;2022-12-10T08:06:57;14.90;;;7.47;;
27187;SDS011;14708;50.872;5.306;2022-12-10T08:09:23;21.73;;;8.35;;
27187;SDS011;14708;50.872;5.306;2022-12-10T08:11:48;15.32;;;6.95;;
27187;SDS011;14708;50.872;5.306;2022-12-10T08:14:14;21.38;;;7.68;;
27187;SDS011;14708;50.872;5.306;2022-12-10T08:16:39;19.50;;;7.65;;
27187;SDS011;14708;50.872;5.306;2022-12-10T08:19:05;18.40;;;7.72;;
27187;SDS011;14708;50.872;5.306;2022-12-10T08:21:32;21.00;;;8.73;;
27187;SDS011;14708;50.872;5.306;2022-12-10T08:23:58;22.90;;;8.30;;
27187;SDS011;14708;50.872;5.306;2022-12-10T08:26:26;21.42;;;8.55;;
27187;SDS011;14708;50.872;5.306;2022-12-10T08:28:54;19.23;;;8.13;;
27187;SDS011;14708;50.872;5.306;2022-12-10T08:31:21;15.70;;;7.40;;
27187;SDS011;14708;50.872;5.306;2022-12-10T08:33:47;23.00;;;7.75;;
27187;SDS011;14708;50.872;5.306;2022-12-10T08:36:14;19.30;;;8.05;;
27187;SDS011;14708;50.872;5.306;2022-12-10T08:38:41;16.15;;;8.07;;
27187;SDS011;14708;50.872;5.306;2022-12-10T08:41:11;24.83;;;8.32;;
27187;SDS011;14708;50.872;5.306;2022-12-10T08:43:44;15.82;;;7.78;;
27187;SDS011;14708;50.872;5.306;2022-12-10T08:46:11;15.25;;;7.47;;
27187;SDS011;14708;50.872;5.306;2022-12-10T08:48:38;19.08;;;6.72;;
27187;SDS011;14708;50.872;5.306;2022-12-10T08:51:04;16.92;;;7.30;;
27187;SDS011;14708;50.872;5.306;2022-12-10T08:53:31;17.15;;;7.38;;
27187;SDS011;14708;50.872;5.306;2022-12-10T08:55:57;19.55;;;7.97;;
27187;SDS011;14708;50.872;5.306;2022-12-10T08:58:23;16.90;;;7.03;;
27187;SDS011;14708;50.872;5.306;2022-12-10T09:00:49;22.05;;;8.90;;
27187;SDS011;14708;50.872;5.306;2022-12-10T09:03:15;13.68;;;7.45;;
27187;SDS011;14708;50.872;5.306;2022-12-10T09:05:41;19.23;;;7.55;;
27187;SDS011;14708;50.872;5.306;2022-12-10T09:08:07;19.05;;;7.60;;
27187;SDS011;14708;50.872;5.306;2022-12-10T09:10:32;17.75;;;8.80;;
27187;SDS011;14708;50.872;5.306;2022-12-10T09:13:00;25.10;;;8.50;;
27187;SDS011;14708;50.872;5.306;2022-12-10T09:15:25;15.02;;;7.40;;
27187;SDS011;14708;50.872;5.306;2022-12-10T09:17:51;18.83;;;8.05;;
27187;SDS011;14708;50.872;5.306;2022-12-10T09:20:17;20.05;;;8.18;;
27187;SDS011;14708;50.872;5.306;2022-12-10T09:22:42;23.95;;;8.32;;
27187;SDS011;14708;50.872;5.306;2022-12-10T09:25:08;20.75;;;7.75;;
27187;SDS011;14708;50.872;5.306;2022-12-10T09:27:40;20.40;;;8.57;;
27187;SDS011;14708;50.872;5.306;2022-12-10T09:30:06;19.05;;;8.13;;
27187;SDS011;14708;50.872;5.306;2022-12-10T09:32:33;20.08;;;7.25;;
27187;SDS011;14708;50.872;5.306;2022-12-10T09:34:58;21.05;;;7.57;;
27187;SDS011;14708;50.872;5.306;2022-12-10T09:37:24;21.05;;;8.00;;
27187;SDS011;14708;50.872;5.306;2022-12-10T09:39:49;15.93;;;7.30;;
27187;SDS011;14708;50.872;5.306;2022-12-10T09:44:47;17.27;;;9.43;;
27187;SDS011;14708;50.872;5.306;2022-12-10T09:47:40;24.20;;;9.98;;
27187;SDS011;14708;50.872;5.306;2022-12-10T09:53:23;18.10;;;9.07;;
27187;SDS011;14708;50.872;5.306;2022-12-10T09:55:51;22.45;;;10.85;;
27187;SDS011;14708;50.872;5.306;2022-12-10T09:58:18;24.55;;;10.73;;
27187;SDS011;14708;50.872;5.306;2022-12-10T10:00:49;25.60;;;11.15;;
27187;SDS011;14708;50.872;5.306;2022-12-10T10:03:19;29.33;;;12.13;;
27187;SDS011;14708;50.872;5.306;2022-12-10T10:05:48;72.78;;;26.38;;
27187;SDS011;14708;50.872;5.306;2022-12-10T10:10:44;76.65;;;28.20;;
27187;SDS011;14708;50.872;5.306;2022-12-10T10:13:11;55.50;;;19.55;;
27187;SDS011;14708;50.872;5.306;2022-12-10T10:15:44;44.90;;;17.55;;
27187;SDS011;14708;50.872;5.306;2022-12-10T10:20:59;45.77;;;18.83;;
27187;SDS011;14708;50.872;5.306;2022-12-10T10:23:26;57.42;;;18.98;;
27187;SDS011;14708;50.872;5.306;2022-12-10T10:25:51;44.90;;;18.20;;
27187;SDS011;14708;50.872;5.306;2022-12-10T10:28:18;48.15;;;18.42;;
27187;SDS011;14708;50.872;5.306;2022-12-10T10:30:46;49.33;;;17.20;;
27187;SDS011;14708;50.872;5.306;2022-12-10T10:33:12;41.05;;;16.48;;
27187;SDS011;14708;50.872;5.306;2022-12-10T10:35:57;58.05;;;18.50;;
27187;SDS011;14708;50.872;5.306;2022-12-10T10:38:27;46.42;;;18.50;;
27187;SDS011;14708;50.872;5.306;2022-12-10T10:40:57;45.40;;;17.30;;
27187;SDS011;14708;50.872;5.306;2022-12-10T10:46:10;45.63;;;17.98;;
27187;SDS011;14708;50.872;5.306;2022-12-10T10:48:39;37.50;;;17.40;;
27187;SDS011;14708;50.872;5.306;2022-12-10T10:53:40;40.45;;;17.10;;
27187;SDS011;14708;50.872;5.306;2022-12-10T10:56:21;38.53;;;17.70;;
27187;SDS011;14708;50.872;5.306;2022-12-10T11:01:48;33.67;;;17.45;;
27187;SDS011;14708;50.872;5.306;2022-12-10T11:04:15;34.92;;;16.33;;
27187;SDS011;14708;50.872;5.306;2022-12-10T11:06:43;32.80;;;15.95;;
27187;SDS011;14708;50.872;5.306;2022-12-10T11:09:20;35.42;;;16.17;;
27187;SDS011;14708;50.872;5.306;2022-12-10T11:11:50;36.92;;;15.02;;
27187;SDS011;14708;50.872;5.306;2022-12-10T11:14:23;37.35;;;14.98;;
27187;SDS011;14708;50.872;5.306;2022-12-10T11:17:08;34.08;;;16.48;;
27187;SDS011;14708;50.872;5.306;2022-12-10T11:19:43;30.60;;;14.93;;
27187;SDS011;14708;50.872;5.306;2022-12-10T11:24:50;34.78;;;14.15;;
27187;SDS011;14708;50.872;5.306;2022-12-10T11:30:20;34.08;;;15.52;;
27187;SDS011;14708;50.872;5.306;2022-12-10T11:33:09;40.50;;;15.07;;
27187;SDS011;14708;50.872;5.306;2022-12-10T11:38:48;36.38;;;15.20;;
27187;SDS011;14708;50.872;5.306;2022-12-10T11:57:30;34.10;;;14.00;;
27187;SDS011;14708;50.872;5.306;2022-12-10T12:00:26;40.00;;;15.82;;
27187;SDS011;14708;50.872;5.306;2022-12-10T12:05:59;33.88;;;13.77;;
27187;SDS011;14708;50.872;5.306;2022-12-10T12:14:25;24.73;;;12.50;;
27187;SDS011;14708;50.872;5.306;2022-12-10T12:17:32;22.15;;;10.43;;
27187;SDS011;14708;50.872;5.306;2022-12-10T12:22:34;23.33;;;10.68;;
27187;SDS011;14708;50.872;5.306;2022-12-10T12:25:08;21.13;;;11.75;;
27187;SDS011;14708;50.872;5.306;2022-12-10T12:27:57;40.10;;;18.15;;
27187;SDS011;14708;50.872;5.306;2022-12-10T12:30:30;39.08;;;19.17;;
27187;SDS011;14708;50.872;5.306;2022-12-10T12:33:02;39.45;;;18.25;;
27187;SDS011;14708;50.872;5.306;2022-12-10T12:35:36;51.47;;;24.15;;
27187;SDS011;14708;50.872;5.306;2022-12-10T12:38:21;53.97;;;24.40;;
27187;SDS011;14708;50.872;5.306;2022-12-10T12:46:16;53.72;;;26.73;;
27187;SDS011;14708;50.872;5.306;2022-12-10T12:48:56;56.88;;;27.08;;
27187;SDS011;14708;50.872;5.306;2022-12-10T12:51:41;52.80;;;25.90;;
27187;SDS011;14708;50.872;5.306;2022-12-10T12:54:15;50.28;;;24.15;;
27187;SDS011;14708;50.872;5.306;2022-12-10T13:02:08;44.70;;;24.30;;
27187;SDS011;14708;50.872;5.306;2022-12-10T13:09:49;58.70;;;25.23;;
27187;SDS011;14708;50.872;5.306;2022-12-10T13:17:36;59.72;;;24.33;;
27187;SDS011;14708;50.872;5.306;2022-12-10T13:22:56;50.17;;;24.23;;
27187;SDS011;14708;50.872;5.306;2022-12-10T13:25:37;57.42;;;24.92;;
27187;SDS011;14708;50.872;5.306;2022-12-10T13:30:47;52.05;;;23.52;;
27187;SDS011;14708;50.872;5.306;2022-12-10T13:33:51;60.00;;;23.85;;
27187;SDS011;14708;50.872;5.306;2022-12-10T13:41:32;57.17;;;24.95;;
27187;SDS011;14708;50.872;5.306;2022-12-10T14:06:35;46.47;;;20.98;;
27187;SDS011;14708;50.872;5.306;2022-12-10T14:09:05;38.22;;;19.38;;
27187;SDS011;14708;50.872;5.306;2022-12-10T14:11:46;40.17;;;20.40;;
27187;SDS011;14708;50.872;5.306;2022-12-10T14:14:23;43.25;;;20.88;;
27187;SDS011;14708;50.872;5.306;2022-12-10T14:16:53;40.20;;;20.80;;
27187;SDS011;14708;50.872;5.306;2022-12-10T14:19:19;45.88;;;20.02;;
27187;SDS011;14708;50.872;5.306;2022-12-10T14:21:45;38.55;;;19.95;;
27187;SDS011;14708;50.872;5.306;2022-12-10T14:24:32;35.13;;;19.25;;
27187;SDS011;14708;50.872;5.306;2022-12-10T14:27:10;34.85;;;19.58;;
27187;SDS011;14708;50.872;5.306;2022-12-10T14:29:52;40.47;;;19.85;;
27187;SDS011;14708;50.872;5.306;2022-12-10T14:32:36;36.80;;;18.30;;
27187;SDS011;14708;50.872;5.306;2022-12-10T14:35:04;35.97;;;19.27;;
27187;SDS011;14708;50.872;5.306;2022-12-10T14:37:54;38.58;;;19.08;;
27187;SDS011;14708;50.872;5.306;2022-12-10T14:40:24;37.90;;;18.67;;
27187;SDS011;14708;50.872;5.306;2022-12-10T14:42:53;39.33;;;19.23;;
27187;SDS011;14708;50.872;5.306;2022-12-10T14:45:24;38.30;;;18.55;;
27187;SDS011;14708;50.872;5.306;2022-12-10T14:47:56;47.97;;;20.73;;
27187;SDS011;14708;50.872;5.306;2022-12-10T14:52:53;49.65;;;22.08;;
27187;SDS011;14708;50.872;5.306;2022-12-10T14:55:21;32.42;;;15.27;;
27187;SDS011;14708;50.872;5.306;2022-12-10T14:57:51;47.88;;;19.45;;
27187;SDS011;14708;50.872;5.306;2022-12-10T15:00:20;41.67;;;18.88;;
27187;SDS011;14708;50.872;5.306;2022-12-10T15:02:49;43.17;;;19.13;;
27187;SDS011;14708;50.872;5.306;2022-12-10T15:05:20;43.70;;;20.20;;
27187;SDS011;14708;50.872;5.306;2022-12-10T15:07:56;44.47;;;19.38;;
27187;SDS011;14708;50.872;5.306;2022-12-10T15:10:24;49.10;;;18.95;;
27187;SDS011;14708;50.872;5.306;2022-12-10T15:12:52;42.58;;;18.20;;
27187;SDS011;14708;50.872;5.306;2022-12-10T15:15:21;39.60;;;18.35;;
27187;SDS011;14708;50.872;5.306;2022-12-10T15:18:00;42.58;;;17.60;;
27187;SDS011;14708;50.872;5.306;2022-12-10T15:20:29;34.72;;;17.05;;
27187;SDS011;14708;50.872;5.306;2022-12-10T15:23:07;34.40;;;17.13;;
27187;SDS011;14708;50.872;5.306;2022-12-10T15:28:40;39.95;;;17.73;;
27187;SDS011;14708;50.872;5.306;2022-12-10T15:39:17;35.85;;;15.70;;
27187;SDS011;14708;50.872;5.306;2022-12-10T15:42:08;31.67;;;16.02;;
27187;SDS011;14708;50.872;5.306;2022-12-10T15:44:54;37.47;;;15.48;;
27187;SDS011;14708;50.872;5.306;2022-12-10T15:47:24;32.13;;;15.90;;
27187;SDS011;14708;50.872;5.306;2022-12-10T15:49:53;32.47;;;15.02;;
27187;SDS011;14708;50.872;5.306;2022-12-10T15:52:21;34.97;;;15.82;;
27187;SDS011;14708;50.872;5.306;2022-12-10T15:54:50;27.80;;;14.52;;
27187;SDS011;14708;50.872;5.306;2022-12-10T15:57:18;30.73;;;14.80;;
27187;SDS011;14708;50.872;5.306;2022-12-10T15:59:47;29.20;;;15.35;;
27187;SDS011;14708;50.872;5.306;2022-12-10T16:04:51;29.70;;;14.00;;
27187;SDS011;14708;50.872;5.306;2022-12-10T16:07:17;31.02;;;13.93;;
27187;SDS011;14708;50.872;5.306;2022-12-10T16:09:43;33.75;;;14.80;;
27187;SDS011;14708;50.872;5.306;2022-12-10T16:12:10;29.95;;;13.57;;
27187;SDS011;14708;50.872;5.306;2022-12-10T16:14:38;25.92;;;13.85;;
27187;SDS011;14708;50.872;5.306;2022-12-10T16:17:09;28.45;;;15.07;;
27187;SDS011;14708;50.872;5.306;2022-12-10T16:19:35;29.10;;;14.43;;
27187;SDS011;14708;50.872;5.306;2022-12-10T16:22:01;29.00;;;14.20;;
27187;SDS011;14708;50.872;5.306;2022-12-10T16:24:27;28.08;;;13.73;;
27187;SDS011;14708;50.872;5.306;2022-12-10T16:26:52;22.80;;;13.52;;
27187;SDS011;14708;50.872;5.306;2022-12-10T16:29:18;28.10;;;13.68;;
27187;SDS011;14708;50.872;5.306;2022-12-10T16:31:46;32.10;;;14.23;;
27187;SDS011;14708;50.872;5.306;2022-12-10T16:34:11;27.60;;;13.32;;
27187;SDS011;14708;50.872;5.306;2022-12-10T16:36:37;33.25;;;13.95;;
27187;SDS011;14708;50.872;5.306;2022-12-10T16:39:04;27.48;;;13.30;;
27187;SDS011;14708;50.872;5.306;2022-12-10T16:41:30;25.95;;;12.93;;
27187;SDS011;14708;50.872;5.306;2022-12-10T16:43:56;26.15;;;14.32;;
27187;SDS011;14708;50.872;5.306;2022-12-10T16:46:22;27.48;;;12.80;;
27187;SDS011;14708;50.872;5.306;2022-12-10T16:48:48;23.52;;;13.07;;
27187;SDS011;14708;50.872;5.306;2022-12-10T16:51:16;40.33;;;13.27;;
27187;SDS011;14708;50.872;5.306;2022-12-10T16:53:46;29.48;;;12.68;;
27187;SDS011;14708;50.872;5.306;2022-12-10T16:56:13;25.10;;;12.30;;
27187;SDS011;14708;50.872;5.306;2022-12-10T16:58:39;23.20;;;13.07;;
27187;SDS011;14708;50.872;5.306;2022-12-10T17:01:07;28.50;;;13.40;;
27187;SDS011;14708;50.872;5.306;2022-12-10T17:03:43;22.63;;;12.20;;
27187;SDS011;14708;50.872;5.306;2022-12-10T17:06:09;21.63;;;11.85;;
27187;SDS011;14708;50.872;5.306;2022-12-10T17:08:36;23.75;;;12.80;;
27187;SDS011;14708;50.872;5.306;2022-12-10T17:11:04;22.95;;;13.50;;